sensor_id;sensor_type;location;lat;lon;timestamp;P1;durP1;ratioP1;P2;durP2;ratioP2
17727;SDS011;8984;49.268;12.302;2023-05-07T00:00:07;6.03;;;3.63;;
17727;SDS011;8984;49.268;12.302;2023-05-07T00:02:40;5.00;;;3.60;;
17727;SDS011;8984;49.268;12.302;2023-05-07T00:05:22;4.90;;;3.27;;
17727;SDS011;8984;49.268;12.302;2023-05-07T00:07:54;3.63;;;3.30;;
17727;SDS011;8984;49.268;12.302;2023-05-07T00:10:31;3.83;;;3.43;;
17727;SDS011;8984;49.268;12.302;2023-05-07T00:13:12;3.77;;;3.47;;
17727;SDS011;8984;49.268;12.302;2023-05-07T00:18:45;6.63;;;2.90;;
17727;SDS011;8984;49.268;12.302;2023-05-07T00:21:11;3.90;;;3.13;;
17727;SDS011;8984;49.268;12.302;2023-05-07T00:23:38;3.63;;;3.30;;
17727;SDS011;8984;49.268;12.302;2023-05-07T00:26:05;4.40;;;3.93;;
17727;SDS011;8984;49.268;12.302;2023-05-07T00:28:32;3.63;;;3.33;;
17727;SDS011;8984;49.268;12.302;2023-05-07T00:30:58;4.53;;;3.87;;
17727;SDS011;8984;49.268;12.302;2023-05-07T00:33:25;5.10;;;3.80;;
17727;SDS011;8984;49.268;12.302;2023-05-07T00:35:54;8.07;;;4.20;;
17727;SDS011;8984;49.268;12.302;2023-05-07T00:38:20;3.90;;;3.50;;
17727;SDS011;8984;49.268;12.302;2023-05-07T00:40:47;7.27;;;3.43;;
17727;SDS011;8984;49.268;12.302;2023-05-07T00:43:15;3.80;;;3.40;;
17727;SDS011;8984;49.268;12.302;2023-05-07T00:45:42;5.17;;;3.83;;
17727;SDS011;8984;49.268;12.302;2023-05-07T00:48:09;4.60;;;4.17;;
17727;SDS011;8984;49.268;12.302;2023-05-07T00:50:36;4.10;;;3.70;;
17727;SDS011;8984;49.268;12.302;2023-05-07T00:53:04;4.93;;;3.80;;
17727;SDS011;8984;49.268;12.302;2023-05-07T00:55:32;3.90;;;3.50;;
17727;SDS011;8984;49.268;12.302;2023-05-07T00:57:59;6.10;;;4.20;;
17727;SDS011;8984;49.268;12.302;2023-05-07T01:00:26;7.67;;;4.03;;
17727;SDS011;8984;49.268;12.302;2023-05-07T01:02:53;4.73;;;4.30;;
17727;SDS011;8984;49.268;12.302;2023-05-07T01:05:20;8.30;;;4.20;;
17727;SDS011;8984;49.268;12.302;2023-05-07T01:07:49;4.57;;;3.87;;
17727;SDS011;8984;49.268;12.302;2023-05-07T01:10:19;4.67;;;3.73;;
17727;SDS011;8984;49.268;12.302;2023-05-07T01:12:46;4.77;;;3.90;;
17727;SDS011;8984;49.268;12.302;2023-05-07T01:15:14;5.97;;;3.83;;
17727;SDS011;8984;49.268;12.302;2023-05-07T01:17:43;5.07;;;4.23;;
17727;SDS011;8984;49.268;12.302;2023-05-07T01:20:10;4.83;;;3.90;;
17727;SDS011;8984;49.268;12.302;2023-05-07T01:22:40;6.30;;;4.27;;
17727;SDS011;8984;49.268;12.302;2023-05-07T01:25:09;4.80;;;4.30;;
17727;SDS011;8984;49.268;12.302;2023-05-07T01:27:35;4.10;;;3.70;;
17727;SDS011;8984;49.268;12.302;2023-05-07T01:30:02;6.63;;;3.70;;
17727;SDS011;8984;49.268;12.302;2023-05-07T01:32:32;4.43;;;4.07;;
17727;SDS011;8984;49.268;12.302;2023-05-07T01:35:09;6.50;;;4.30;;
17727;SDS011;8984;49.268;12.302;2023-05-07T01:37:39;5.30;;;3.80;;
17727;SDS011;8984;49.268;12.302;2023-05-07T01:40:09;6.67;;;4.30;;
17727;SDS011;8984;49.268;12.302;2023-05-07T01:42:40;4.77;;;3.97;;
17727;SDS011;8984;49.268;12.302;2023-05-07T01:45:13;4.43;;;4.03;;
17727;SDS011;8984;49.268;12.302;2023-05-07T01:47:41;4.73;;;3.97;;
17727;SDS011;8984;49.268;12.302;2023-05-07T01:50:10;5.70;;;4.27;;
17727;SDS011;8984;49.268;12.302;2023-05-07T01:52:43;6.07;;;4.60;;
17727;SDS011;8984;49.268;12.302;2023-05-07T01:55:27;4.90;;;4.17;;
17727;SDS011;8984;49.268;12.302;2023-05-07T01:57:56;7.17;;;4.97;;
17727;SDS011;8984;49.268;12.302;2023-05-07T02:00:28;6.73;;;4.70;;
17727;SDS011;8984;49.268;12.302;2023-05-07T02:02:58;8.73;;;5.60;;
17727;SDS011;8984;49.268;12.302;2023-05-07T02:05:26;5.20;;;4.70;;
17727;SDS011;8984;49.268;12.302;2023-05-07T02:08:03;9.97;;;4.80;;
17727;SDS011;8984;49.268;12.302;2023-05-07T02:10:46;7.57;;;5.07;;
17727;SDS011;8984;49.268;12.302;2023-05-07T02:13:16;6.50;;;4.67;;
17727;SDS011;8984;49.268;12.302;2023-05-07T02:15:49;6.63;;;5.10;;
17727;SDS011;8984;49.268;12.302;2023-05-07T02:18:19;6.37;;;5.33;;
17727;SDS011;8984;49.268;12.302;2023-05-07T02:20:47;7.10;;;5.00;;
17727;SDS011;8984;49.268;12.302;2023-05-07T02:23:18;5.80;;;5.20;;
17727;SDS011;8984;49.268;12.302;2023-05-07T02:25:48;7.50;;;5.43;;
17727;SDS011;8984;49.268;12.302;2023-05-07T02:28:15;7.67;;;5.27;;
17727;SDS011;8984;49.268;12.302;2023-05-07T02:30:48;5.50;;;5.00;;
17727;SDS011;8984;49.268;12.302;2023-05-07T02:33:22;8.97;;;5.70;;
17727;SDS011;8984;49.268;12.302;2023-05-07T02:35:51;8.63;;;5.70;;
17727;SDS011;8984;49.268;12.302;2023-05-07T02:38:43;10.77;;;5.97;;
17727;SDS011;8984;49.268;12.302;2023-05-07T02:41:21;7.93;;;5.97;;
17727;SDS011;8984;49.268;12.302;2023-05-07T02:44:11;10.20;;;6.13;;
17727;SDS011;8984;49.268;12.302;2023-05-07T02:46:40;6.73;;;6.03;;
17727;SDS011;8984;49.268;12.302;2023-05-07T02:49:13;9.77;;;5.23;;
17727;SDS011;8984;49.268;12.302;2023-05-07T02:51:45;6.83;;;5.33;;
17727;SDS011;8984;49.268;12.302;2023-05-07T02:54:15;7.37;;;5.20;;
17727;SDS011;8984;49.268;12.302;2023-05-07T02:56:51;10.07;;;5.60;;
17727;SDS011;8984;49.268;12.302;2023-05-07T02:59:29;7.27;;;5.50;;
17727;SDS011;8984;49.268;12.302;2023-05-07T03:02:00;6.53;;;5.17;;
17727;SDS011;8984;49.268;12.302;2023-05-07T03:04:29;7.67;;;5.30;;
17727;SDS011;8984;49.268;12.302;2023-05-07T03:06:57;8.93;;;5.70;;
17727;SDS011;8984;49.268;12.302;2023-05-07T03:09:26;12.60;;;5.47;;
17727;SDS011;8984;49.268;12.302;2023-05-07T03:12:01;7.07;;;5.43;;
17727;SDS011;8984;49.268;12.302;2023-05-07T03:14:31;7.50;;;5.73;;
17727;SDS011;8984;49.268;12.302;2023-05-07T03:17:00;5.80;;;5.30;;
17727;SDS011;8984;49.268;12.302;2023-05-07T03:19:29;8.53;;;5.90;;
17727;SDS011;8984;49.268;12.302;2023-05-07T03:22:01;7.43;;;5.63;;
17727;SDS011;8984;49.268;12.302;2023-05-07T03:27:21;6.93;;;5.33;;
17727;SDS011;8984;49.268;12.302;2023-05-07T03:29:53;6.07;;;5.47;;
17727;SDS011;8984;49.268;12.302;2023-05-07T03:32:27;6.27;;;5.50;;
17727;SDS011;8984;49.268;12.302;2023-05-07T03:35:00;6.47;;;5.77;;
17727;SDS011;8984;49.268;12.302;2023-05-07T03:37:32;6.27;;;5.77;;
17727;SDS011;8984;49.268;12.302;2023-05-07T03:40:13;6.37;;;5.77;;
17727;SDS011;8984;49.268;12.302;2023-05-07T03:42:40;8.33;;;5.83;;
17727;SDS011;8984;49.268;12.302;2023-05-07T03:45:16;7.23;;;6.27;;
17727;SDS011;8984;49.268;12.302;2023-05-07T03:47:51;7.73;;;6.73;;
17727;SDS011;8984;49.268;12.302;2023-05-07T03:50:22;6.60;;;5.90;;
17727;SDS011;8984;49.268;12.302;2023-05-07T03:52:53;6.63;;;6.03;;
17727;SDS011;8984;49.268;12.302;2023-05-07T03:55:22;7.33;;;6.43;;
17727;SDS011;8984;49.268;12.302;2023-05-07T03:57:56;6.93;;;6.17;;
17727;SDS011;8984;49.268;12.302;2023-05-07T04:00:24;9.07;;;6.47;;
17727;SDS011;8984;49.268;12.302;2023-05-07T04:02:58;8.10;;;6.67;;
17727;SDS011;8984;49.268;12.302;2023-05-07T04:05:26;6.83;;;6.13;;
17727;SDS011;8984;49.268;12.302;2023-05-07T04:07:55;7.13;;;6.23;;
17727;SDS011;8984;49.268;12.302;2023-05-07T04:10:25;6.63;;;6.03;;
17727;SDS011;8984;49.268;12.302;2023-05-07T04:12:59;7.80;;;7.00;;
17727;SDS011;8984;49.268;12.302;2023-05-07T04:15:34;7.77;;;6.37;;
17727;SDS011;8984;49.268;12.302;2023-05-07T04:18:02;8.10;;;7.27;;
17727;SDS011;8984;49.268;12.302;2023-05-07T04:20:46;7.30;;;6.53;;
17727;SDS011;8984;49.268;12.302;2023-05-07T04:23:24;7.93;;;7.00;;
17727;SDS011;8984;49.268;12.302;2023-05-07T04:25:57;8.73;;;7.20;;
17727;SDS011;8984;49.268;12.302;2023-05-07T04:28:28;8.57;;;7.33;;
17727;SDS011;8984;49.268;12.302;2023-05-07T04:30:55;7.17;;;6.47;;
17727;SDS011;8984;49.268;12.302;2023-05-07T04:33:28;7.00;;;6.30;;
17727;SDS011;8984;49.268;12.302;2023-05-07T04:35:57;7.23;;;6.00;;
17727;SDS011;8984;49.268;12.302;2023-05-07T04:38:31;9.67;;;6.30;;
17727;SDS011;8984;49.268;12.302;2023-05-07T04:41:05;6.67;;;6.07;;
17727;SDS011;8984;49.268;12.302;2023-05-07T04:43:36;8.20;;;6.00;;
17727;SDS011;8984;49.268;12.302;2023-05-07T04:46:10;6.07;;;5.50;;
17727;SDS011;8984;49.268;12.302;2023-05-07T04:48:41;7.37;;;6.33;;
17727;SDS011;8984;49.268;12.302;2023-05-07T04:51:19;7.70;;;6.30;;
17727;SDS011;8984;49.268;12.302;2023-05-07T04:53:51;8.40;;;5.90;;
17727;SDS011;8984;49.268;12.302;2023-05-07T04:56:28;7.57;;;5.50;;
17727;SDS011;8984;49.268;12.302;2023-05-07T04:58:57;7.73;;;5.93;;
17727;SDS011;8984;49.268;12.302;2023-05-07T05:01:26;9.00;;;6.27;;
17727;SDS011;8984;49.268;12.302;2023-05-07T05:03:55;6.60;;;5.83;;
17727;SDS011;8984;49.268;12.302;2023-05-07T05:06:25;7.43;;;6.63;;
17727;SDS011;8984;49.268;12.302;2023-05-07T05:08:53;6.37;;;5.73;;
17727;SDS011;8984;49.268;12.302;2023-05-07T05:14:13;6.63;;;5.43;;
17727;SDS011;8984;49.268;12.302;2023-05-07T05:16:50;9.03;;;5.30;;
17727;SDS011;8984;49.268;12.302;2023-05-07T05:19:22;6.70;;;5.60;;
17727;SDS011;8984;49.268;12.302;2023-05-07T05:21:50;6.23;;;5.20;;
17727;SDS011;8984;49.268;12.302;2023-05-07T05:24:18;9.73;;;5.87;;
17727;SDS011;8984;49.268;12.302;2023-05-07T05:26:52;6.50;;;5.43;;
17727;SDS011;8984;49.268;12.302;2023-05-07T05:29:25;8.20;;;5.20;;
17727;SDS011;8984;49.268;12.302;2023-05-07T05:31:52;7.20;;;5.27;;
17727;SDS011;8984;49.268;12.302;2023-05-07T05:34:20;6.60;;;5.27;;
17727;SDS011;8984;49.268;12.302;2023-05-07T05:37:11;10.13;;;6.28;;
17727;SDS011;8984;49.268;12.302;2023-05-07T05:39:42;6.93;;;5.33;;
17727;SDS011;8984;49.268;12.302;2023-05-07T05:42:11;10.52;;;6.68;;
17727;SDS011;8984;49.268;12.302;2023-05-07T05:44:43;6.70;;;6.00;;
17727;SDS011;8984;49.268;12.302;2023-05-07T05:47:21;6.78;;;5.82;;
17727;SDS011;8984;49.268;12.302;2023-05-07T05:49:50;6.72;;;5.90;;
17727;SDS011;8984;49.268;12.302;2023-05-07T05:52:19;7.28;;;6.25;;
17727;SDS011;8984;49.268;12.302;2023-05-07T05:54:48;7.30;;;5.85;;
17727;SDS011;8984;49.268;12.302;2023-05-07T05:57:45;7.60;;;6.82;;
17727;SDS011;8984;49.268;12.302;2023-05-07T06:00:16;7.00;;;6.40;;
17727;SDS011;8984;49.268;12.302;2023-05-07T06:02:48;9.25;;;7.75;;
17727;SDS011;8984;49.268;12.302;2023-05-07T06:05:19;7.93;;;6.88;;
17727;SDS011;8984;49.268;12.302;2023-05-07T06:07:51;9.05;;;7.50;;
17727;SDS011;8984;49.268;12.302;2023-05-07T06:10:31;9.38;;;7.68;;
17727;SDS011;8984;49.268;12.302;2023-05-07T06:13:11;8.30;;;7.50;;
17727;SDS011;8984;49.268;12.302;2023-05-07T06:15:38;9.13;;;7.43;;
17727;SDS011;8984;49.268;12.302;2023-05-07T06:18:09;12.23;;;11.02;;
17727;SDS011;8984;49.268;12.302;2023-05-07T06:20:38;8.68;;;7.78;;
17727;SDS011;8984;49.268;12.302;2023-05-07T06:23:06;9.45;;;8.45;;
17727;SDS011;8984;49.268;12.302;2023-05-07T06:25:35;9.43;;;7.68;;
17727;SDS011;8984;49.268;12.302;2023-05-07T06:28:05;11.43;;;10.32;;
17727;SDS011;8984;49.268;12.302;2023-05-07T06:30:35;11.25;;;8.13;;
17727;SDS011;8984;49.268;12.302;2023-05-07T06:33:03;9.20;;;8.27;;
17727;SDS011;8984;49.268;12.302;2023-05-07T06:35:33;12.30;;;8.05;;
17727;SDS011;8984;49.268;12.302;2023-05-07T06:38:03;7.93;;;7.07;;
17727;SDS011;8984;49.268;12.302;2023-05-07T06:40:31;7.67;;;6.80;;
17727;SDS011;8984;49.268;12.302;2023-05-07T06:43:06;8.50;;;7.05;;
17727;SDS011;8984;49.268;12.302;2023-05-07T06:45:39;11.50;;;7.60;;
17727;SDS011;8984;49.268;12.302;2023-05-07T06:48:12;9.85;;;7.90;;
17727;SDS011;8984;49.268;12.302;2023-05-07T06:50:52;10.88;;;7.72;;
17727;SDS011;8984;49.268;12.302;2023-05-07T06:53:24;8.57;;;7.68;;
17727;SDS011;8984;49.268;12.302;2023-05-07T06:55:55;9.90;;;7.80;;
17727;SDS011;8984;49.268;12.302;2023-05-07T06:58:24;9.48;;;8.13;;
17727;SDS011;8984;49.268;12.302;2023-05-07T07:00:57;8.82;;;7.93;;
17727;SDS011;8984;49.268;12.302;2023-05-07T07:03:26;8.23;;;7.22;;
17727;SDS011;8984;49.268;12.302;2023-05-07T07:05:58;9.23;;;7.93;;
17727;SDS011;8984;49.268;12.302;2023-05-07T07:08:27;10.43;;;8.75;;
17727;SDS011;8984;49.268;12.302;2023-05-07T07:11:04;21.40;;;14.38;;
17727;SDS011;8984;49.268;12.302;2023-05-07T07:13:42;10.40;;;8.05;;
17727;SDS011;8984;49.268;12.302;2023-05-07T07:16:18;9.82;;;8.07;;
17727;SDS011;8984;49.268;12.302;2023-05-07T07:18:45;8.57;;;7.68;;
17727;SDS011;8984;49.268;12.302;2023-05-07T07:21:25;10.73;;;8.48;;
17727;SDS011;8984;49.268;12.302;2023-05-07T07:23:57;9.52;;;8.40;;
17727;SDS011;8984;49.268;12.302;2023-05-07T07:26:28;10.60;;;8.80;;
17727;SDS011;8984;49.268;12.302;2023-05-07T07:29:02;9.73;;;7.97;;
17727;SDS011;8984;49.268;12.302;2023-05-07T07:34:22;13.40;;;8.80;;
17727;SDS011;8984;49.268;12.302;2023-05-07T07:36:51;10.45;;;8.88;;
17727;SDS011;8984;49.268;12.302;2023-05-07T07:39:21;9.70;;;8.18;;
17727;SDS011;8984;49.268;12.302;2023-05-07T07:41:56;9.07;;;7.07;;
17727;SDS011;8984;49.268;12.302;2023-05-07T07:44:31;9.88;;;8.50;;
17727;SDS011;8984;49.268;12.302;2023-05-07T07:47:12;9.70;;;7.55;;
17727;SDS011;8984;49.268;12.302;2023-05-07T07:49:48;11.00;;;7.93;;
17727;SDS011;8984;49.268;12.302;2023-05-07T07:52:18;9.00;;;7.90;;
17727;SDS011;8984;49.268;12.302;2023-05-07T07:54:49;9.25;;;7.97;;
17727;SDS011;8984;49.268;12.302;2023-05-07T07:57:18;8.52;;;7.47;;
17727;SDS011;8984;49.268;12.302;2023-05-07T07:59:54;8.05;;;7.05;;
17727;SDS011;8984;49.268;12.302;2023-05-07T08:02:24;7.13;;;6.43;;
17727;SDS011;8984;49.268;12.302;2023-05-07T08:04:55;9.80;;;6.95;;
17727;SDS011;8984;49.268;12.302;2023-05-07T08:07:23;18.75;;;8.75;;
17727;SDS011;8984;49.268;12.302;2023-05-07T08:09:50;8.38;;;7.45;;
17727;SDS011;8984;49.268;12.302;2023-05-07T08:12:18;7.78;;;6.80;;
17727;SDS011;8984;49.268;12.302;2023-05-07T08:14:47;7.90;;;7.10;;
17727;SDS011;8984;49.268;12.302;2023-05-07T08:17:18;7.30;;;6.60;;
17727;SDS011;8984;49.268;12.302;2023-05-07T08:19:48;8.35;;;6.78;;
17727;SDS011;8984;49.268;12.302;2023-05-07T08:22:17;7.80;;;6.60;;
17727;SDS011;8984;49.268;12.302;2023-05-07T08:24:50;11.93;;;7.13;;
17727;SDS011;8984;49.268;12.302;2023-05-07T08:27:19;7.78;;;6.65;;
17727;SDS011;8984;49.268;12.302;2023-05-07T08:29:51;8.32;;;6.88;;
17727;SDS011;8984;49.268;12.302;2023-05-07T08:32:40;8.07;;;6.35;;
17727;SDS011;8984;49.268;12.302;2023-05-07T08:38:09;8.57;;;7.53;;
17727;SDS011;8984;49.268;12.302;2023-05-07T08:40:39;7.85;;;6.68;;
17727;SDS011;8984;49.268;12.302;2023-05-07T08:43:08;8.85;;;6.75;;
17727;SDS011;8984;49.268;12.302;2023-05-07T08:45:39;9.23;;;7.13;;
17727;SDS011;8984;49.268;12.302;2023-05-07T08:48:14;10.13;;;7.15;;
17727;SDS011;8984;49.268;12.302;2023-05-07T08:50:53;8.05;;;6.88;;
17727;SDS011;8984;49.268;12.302;2023-05-07T08:53:24;7.50;;;6.38;;
17727;SDS011;8984;49.268;12.302;2023-05-07T08:55:52;7.88;;;7.07;;
17727;SDS011;8984;49.268;12.302;2023-05-07T08:58:23;8.05;;;6.90;;
17727;SDS011;8984;49.268;12.302;2023-05-07T09:00:51;8.43;;;6.85;;
17727;SDS011;8984;49.268;12.302;2023-05-07T09:03:19;7.82;;;7.03;;
17727;SDS011;8984;49.268;12.302;2023-05-07T09:05:47;8.80;;;6.55;;
17727;SDS011;8984;49.268;12.302;2023-05-07T09:08:35;7.82;;;7.03;;
17727;SDS011;8984;49.268;12.302;2023-05-07T09:11:06;7.65;;;6.82;;
17727;SDS011;8984;49.268;12.302;2023-05-07T09:13:38;8.52;;;7.63;;
17727;SDS011;8984;49.268;12.302;2023-05-07T09:16:11;8.75;;;7.13;;
17727;SDS011;8984;49.268;12.302;2023-05-07T09:18:41;8.68;;;7.22;;
17727;SDS011;8984;49.268;12.302;2023-05-07T09:21:10;8.18;;;7.07;;
17727;SDS011;8984;49.268;12.302;2023-05-07T09:23:46;9.00;;;7.25;;
17727;SDS011;8984;49.268;12.302;2023-05-07T09:26:20;9.18;;;7.65;;
17727;SDS011;8984;49.268;12.302;2023-05-07T09:28:50;9.00;;;7.07;;
17727;SDS011;8984;49.268;12.302;2023-05-07T09:31:22;8.43;;;7.47;;
17727;SDS011;8984;49.268;12.302;2023-05-07T09:33:55;8.65;;;7.05;;
17727;SDS011;8984;49.268;12.302;2023-05-07T09:36:29;10.15;;;7.18;;
17727;SDS011;8984;49.268;12.302;2023-05-07T09:39:01;7.05;;;6.35;;
17727;SDS011;8984;49.268;12.302;2023-05-07T09:41:44;8.57;;;6.70;;
17727;SDS011;8984;49.268;12.302;2023-05-07T09:44:23;8.32;;;7.28;;
17727;SDS011;8984;49.268;12.302;2023-05-07T09:46:59;7.68;;;6.53;;
17727;SDS011;8984;49.268;12.302;2023-05-07T09:49:37;7.60;;;6.75;;
17727;SDS011;8984;49.268;12.302;2023-05-07T09:52:12;10.73;;;6.65;;
17727;SDS011;8984;49.268;12.302;2023-05-07T09:54:43;7.90;;;6.82;;
17727;SDS011;8984;49.268;12.302;2023-05-07T09:57:14;8.93;;;7.80;;
17727;SDS011;8984;49.268;12.302;2023-05-07T09:59:45;9.05;;;7.78;;
17727;SDS011;8984;49.268;12.302;2023-05-07T10:02:16;10.85;;;7.78;;
17727;SDS011;8984;49.268;12.302;2023-05-07T10:05:09;9.07;;;7.65;;
17727;SDS011;8984;49.268;12.302;2023-05-07T10:07:47;7.70;;;6.90;;
17727;SDS011;8984;49.268;12.302;2023-05-07T10:10:17;9.25;;;7.55;;
17727;SDS011;8984;49.268;12.302;2023-05-07T10:12:47;11.63;;;7.15;;
17727;SDS011;8984;49.268;12.302;2023-05-07T10:15:15;10.52;;;6.82;;
17727;SDS011;8984;49.268;12.302;2023-05-07T10:17:43;9.27;;;8.07;;
17727;SDS011;8984;49.268;12.302;2023-05-07T10:20:12;8.18;;;7.22;;
17727;SDS011;8984;49.268;12.302;2023-05-07T10:22:44;8.90;;;8.00;;
17727;SDS011;8984;49.268;12.302;2023-05-07T10:25:14;10.77;;;7.70;;
17727;SDS011;8984;49.268;12.302;2023-05-07T10:27:48;10.02;;;6.70;;
17727;SDS011;8984;49.268;12.302;2023-05-07T10:30:26;8.65;;;6.72;;
17727;SDS011;8984;49.268;12.302;2023-05-07T10:33:08;11.63;;;7.82;;
17727;SDS011;8984;49.268;12.302;2023-05-07T10:36:01;8.50;;;7.60;;
17727;SDS011;8984;49.268;12.302;2023-05-07T10:38:44;8.40;;;7.50;;
17727;SDS011;8984;49.268;12.302;2023-05-07T10:41:14;7.75;;;6.90;;
17727;SDS011;8984;49.268;12.302;2023-05-07T10:43:47;8.55;;;6.65;;
17727;SDS011;8984;49.268;12.302;2023-05-07T10:46:17;9.45;;;7.05;;
17727;SDS011;8984;49.268;12.302;2023-05-07T10:54:39;6.47;;;5.75;;
17727;SDS011;8984;49.268;12.302;2023-05-07T11:03:08;7.32;;;6.13;;
17727;SDS011;8984;49.268;12.302;2023-05-07T11:05:36;6.90;;;5.22;;
17727;SDS011;8984;49.268;12.302;2023-05-07T11:08:07;6.40;;;5.80;;
17727;SDS011;8984;49.268;12.302;2023-05-07T11:10:49;9.07;;;7.03;;
17727;SDS011;8984;49.268;12.302;2023-05-07T11:16:24;8.80;;;6.00;;
17727;SDS011;8984;49.268;12.302;2023-05-07T11:19:01;8.68;;;6.15;;
17727;SDS011;8984;49.268;12.302;2023-05-07T11:21:39;7.47;;;6.78;;
17727;SDS011;8984;49.268;12.302;2023-05-07T11:24:11;8.80;;;6.30;;
17727;SDS011;8984;49.268;12.302;2023-05-07T11:26:45;7.75;;;6.25;;
17727;SDS011;8984;49.268;12.302;2023-05-07T11:31:59;5.68;;;4.38;;
17727;SDS011;8984;49.268;12.302;2023-05-07T11:34:41;7.65;;;5.63;;
17727;SDS011;8984;49.268;12.302;2023-05-07T11:37:16;8.57;;;5.60;;
17727;SDS011;8984;49.268;12.302;2023-05-07T11:39:52;6.57;;;5.40;;
17727;SDS011;8984;49.268;12.302;2023-05-07T11:42:30;6.13;;;5.38;;
17727;SDS011;8984;49.268;12.302;2023-05-07T11:45:07;5.55;;;4.63;;
17727;SDS011;8984;49.268;12.302;2023-05-07T11:47:38;6.18;;;4.53;;
17727;SDS011;8984;49.268;12.302;2023-05-07T11:50:26;7.50;;;5.05;;
17727;SDS011;8984;49.268;12.302;2023-05-07T11:52:53;5.50;;;4.95;;
17727;SDS011;8984;49.268;12.302;2023-05-07T11:55:21;5.72;;;4.43;;
17727;SDS011;8984;49.268;12.302;2023-05-07T11:57:51;9.85;;;3.95;;
17727;SDS011;8984;49.268;12.302;2023-05-07T12:00:23;5.97;;;4.05;;
17727;SDS011;8984;49.268;12.302;2023-05-07T12:02:54;5.32;;;4.50;;
17727;SDS011;8984;49.268;12.302;2023-05-07T12:05:26;5.97;;;4.05;;
17727;SDS011;8984;49.268;12.302;2023-05-07T12:07:57;5.53;;;4.70;;
17727;SDS011;8984;49.268;12.302;2023-05-07T12:10:25;5.18;;;4.10;;
17727;SDS011;8984;49.268;12.302;2023-05-07T12:12:57;4.47;;;4.05;;
17727;SDS011;8984;49.268;12.302;2023-05-07T12:15:42;5.55;;;4.40;;
17727;SDS011;8984;49.268;12.302;2023-05-07T12:18:11;4.95;;;4.45;;
17727;SDS011;8984;49.268;12.302;2023-05-07T12:20:41;6.28;;;5.53;;
17727;SDS011;8984;49.268;12.302;2023-05-07T12:23:10;8.52;;;4.60;;
17727;SDS011;8984;49.268;12.302;2023-05-07T12:25:43;4.80;;;4.38;;
17727;SDS011;8984;49.268;12.302;2023-05-07T12:28:25;5.50;;;3.30;;
17727;SDS011;8984;49.268;12.302;2023-05-07T12:31:44;4.25;;;3.80;;
17727;SDS011;8984;49.268;12.302;2023-05-07T12:34:25;4.50;;;3.20;;
17727;SDS011;8984;49.268;12.302;2023-05-07T12:36:54;3.95;;;3.10;;
17727;SDS011;8984;49.268;12.302;2023-05-07T12:39:30;3.72;;;2.97;;
17727;SDS011;8984;49.268;12.302;2023-05-07T12:41:59;3.75;;;3.45;;
17727;SDS011;8984;49.268;12.302;2023-05-07T12:44:43;3.88;;;3.35;;
17727;SDS011;8984;49.268;12.302;2023-05-07T12:47:14;6.55;;;4.43;;
17727;SDS011;8984;49.268;12.302;2023-05-07T12:49:42;6.50;;;3.90;;
17727;SDS011;8984;49.268;12.302;2023-05-07T12:52:18;5.13;;;4.15;;
17727;SDS011;8984;49.268;12.302;2023-05-07T12:55:12;4.03;;;3.45;;
17727;SDS011;8984;49.268;12.302;2023-05-07T12:58:14;4.00;;;3.60;;
17727;SDS011;8984;49.268;12.302;2023-05-07T13:00:47;4.32;;;3.35;;
17727;SDS011;8984;49.268;12.302;2023-05-07T13:03:25;5.43;;;3.80;;
17727;SDS011;8984;49.268;12.302;2023-05-07T13:05:54;4.07;;;3.67;;
17727;SDS011;8984;49.268;12.302;2023-05-07T13:08:29;3.97;;;3.47;;
17727;SDS011;8984;49.268;12.302;2023-05-07T13:10:57;4.13;;;3.60;;
17727;SDS011;8984;49.268;12.302;2023-05-07T13:13:30;4.15;;;3.30;;
17727;SDS011;8984;49.268;12.302;2023-05-07T13:16:07;2.95;;;2.70;;
17727;SDS011;8984;49.268;12.302;2023-05-07T13:21:50;6.18;;;3.70;;
17727;SDS011;8984;49.268;12.302;2023-05-07T13:24:21;5.28;;;3.10;;
17727;SDS011;8984;49.268;12.302;2023-05-07T13:26:48;3.45;;;2.78;;
17727;SDS011;8984;49.268;12.302;2023-05-07T13:29:21;3.08;;;2.70;;
17727;SDS011;8984;49.268;12.302;2023-05-07T13:32:04;5.50;;;3.40;;
17727;SDS011;8984;49.268;12.302;2023-05-07T13:34:34;5.53;;;4.10;;
17727;SDS011;8984;49.268;12.302;2023-05-07T13:37:09;4.45;;;3.47;;
17727;SDS011;8984;49.268;12.302;2023-05-07T13:39:39;4.63;;;3.15;;
17727;SDS011;8984;49.268;12.302;2023-05-07T13:42:07;5.53;;;3.78;;
17727;SDS011;8984;49.268;12.302;2023-05-07T13:44:42;3.30;;;2.70;;
17727;SDS011;8984;49.268;12.302;2023-05-07T13:47:28;5.18;;;3.00;;
17727;SDS011;8984;49.268;12.302;2023-05-07T13:49:57;3.72;;;3.00;;
17727;SDS011;8984;49.268;12.302;2023-05-07T13:52:28;5.35;;;3.00;;
17727;SDS011;8984;49.268;12.302;2023-05-07T13:54:58;4.10;;;3.10;;
17727;SDS011;8984;49.268;12.302;2023-05-07T13:57:32;4.55;;;3.60;;
17727;SDS011;8984;49.268;12.302;2023-05-07T13:59:59;3.97;;;2.80;;
17727;SDS011;8984;49.268;12.302;2023-05-07T14:02:30;3.85;;;3.17;;
17727;SDS011;8984;49.268;12.302;2023-05-07T14:05:08;5.03;;;3.40;;
17727;SDS011;8984;49.268;12.302;2023-05-07T14:08:10;3.33;;;3.03;;
17727;SDS011;8984;49.268;12.302;2023-05-07T14:10:45;4.22;;;3.30;;
17727;SDS011;8984;49.268;12.302;2023-05-07T14:13:15;4.63;;;3.47;;
17727;SDS011;8984;49.268;12.302;2023-05-07T14:15:44;5.72;;;3.25;;
17727;SDS011;8984;49.268;12.302;2023-05-07T14:18:15;4.60;;;3.15;;
17727;SDS011;8984;49.268;12.302;2023-05-07T14:20:52;4.30;;;3.47;;
17727;SDS011;8984;49.268;12.302;2023-05-07T14:23:21;4.55;;;3.80;;
17727;SDS011;8984;49.268;12.302;2023-05-07T14:29:17;4.65;;;4.15;;
17727;SDS011;8984;49.268;12.302;2023-05-07T14:31:59;6.10;;;4.38;;
17727;SDS011;8984;49.268;12.302;2023-05-07T14:34:35;5.10;;;4.03;;
17727;SDS011;8984;49.268;12.302;2023-05-07T14:37:17;6.80;;;4.60;;
17727;SDS011;8984;49.268;12.302;2023-05-07T14:39:46;5.32;;;4.18;;
17727;SDS011;8984;49.268;12.302;2023-05-07T14:42:19;6.32;;;3.85;;
17727;SDS011;8984;49.268;12.302;2023-05-07T14:44:48;8.65;;;4.18;;
17727;SDS011;8984;49.268;12.302;2023-05-07T14:47:22;8.50;;;3.97;;
17727;SDS011;8984;49.268;12.302;2023-05-07T14:50:19;6.88;;;4.35;;
17727;SDS011;8984;49.268;12.302;2023-05-07T14:52:48;4.03;;;3.58;;
17727;SDS011;8984;49.268;12.302;2023-05-07T14:55:34;7.60;;;3.97;;
17727;SDS011;8984;49.268;12.302;2023-05-07T14:58:02;4.85;;;4.30;;
17727;SDS011;8984;49.268;12.302;2023-05-07T15:00:32;5.00;;;4.28;;
17727;SDS011;8984;49.268;12.302;2023-05-07T15:03:06;5.60;;;4.50;;
17727;SDS011;8984;49.268;12.302;2023-05-07T15:05:39;5.00;;;3.88;;
17727;SDS011;8984;49.268;12.302;2023-05-07T15:08:14;6.88;;;4.50;;
17727;SDS011;8984;49.268;12.302;2023-05-07T15:10:48;4.63;;;4.22;;
17727;SDS011;8984;49.268;12.302;2023-05-07T15:13:20;4.60;;;4.20;;
17727;SDS011;8984;49.268;12.302;2023-05-07T15:16:07;5.22;;;4.50;;
17727;SDS011;8984;49.268;12.302;2023-05-07T15:18:37;5.10;;;3.88;;
17727;SDS011;8984;49.268;12.302;2023-05-07T15:21:13;5.13;;;4.35;;
17727;SDS011;8984;49.268;12.302;2023-05-07T15:23:50;4.68;;;4.05;;
17727;SDS011;8984;49.268;12.302;2023-05-07T15:26:20;4.18;;;3.78;;
17727;SDS011;8984;49.268;12.302;2023-05-07T15:29:02;5.60;;;4.93;;
17727;SDS011;8984;49.268;12.302;2023-05-07T15:31:34;10.18;;;5.65;;
17727;SDS011;8984;49.268;12.302;2023-05-07T15:34:18;6.85;;;5.20;;
17727;SDS011;8984;49.268;12.302;2023-05-07T15:36:55;5.85;;;5.25;;
17727;SDS011;8984;49.268;12.302;2023-05-07T15:39:26;7.03;;;4.93;;
17727;SDS011;8984;49.268;12.302;2023-05-07T15:41:55;8.18;;;5.75;;
17727;SDS011;8984;49.268;12.302;2023-05-07T15:44:26;9.07;;;5.93;;
17727;SDS011;8984;49.268;12.302;2023-05-07T15:46:58;6.38;;;5.50;;
17727;SDS011;8984;49.268;12.302;2023-05-07T15:49:28;8.30;;;5.60;;
17727;SDS011;8984;49.268;12.302;2023-05-07T15:51:56;6.45;;;5.72;;
17727;SDS011;8984;49.268;12.302;2023-05-07T15:54:32;5.93;;;5.28;;
17727;SDS011;8984;49.268;12.302;2023-05-07T15:57:00;7.05;;;4.95;;